Time;durP1;ratioP1;P1;durP2;ratioP2;P2;SDS_P1;SDS_P2;PMS_P1;PMS_P2;Temp;Humidity;BMP_temperature;BMP_pressure;BME280_temperature;BME280_humidity;BME280_pressure;Samples;Min_cycle;Max_cycle;Signal;HPM_P1;HPM_P2
2023/10/10 00:02:18;;;;;;;24.30;14.43;;;19.70;75.20;;;;;;4938665;29;20091;-68
2023/10/10 00:04:48;;;;;;;26.27;15.32;;;19.70;75.20;;;;;;4938337;29;20123;-69
2023/10/10 00:07:14;;;;;;;23.63;15.57;;;19.70;75.20;;;;;;4938393;29;20489;-68
2023/10/10 00:09:44;;;;;;;23.90;14.80;;;19.60;75.30;;;;;;4938461;29;20038;-68
2023/10/10 00:12:21;;;;;;;24.48;15.15;;;19.60;75.30;;;;;;4938233;29;20043;-68
2023/10/10 00:14:50;;;;;;;24.38;15.30;;;19.60;75.50;;;;;;4938362;29;20068;-68
2023/10/10 00:17:16;;;;;;;23.38;14.32;;;19.50;75.50;;;;;;4922225;29;20028;-68
2023/10/10 00:19:45;;;;;;;24.58;15.23;;;19.60;75.40;;;;;;4938019;29;20040;-68
2023/10/10 00:22:12;;;;;;;21.83;15.13;;;19.50;75.50;;;;;;4938461;29;20064;-68
2023/10/10 00:24:41;;;;;;;23.60;14.27;;;19.50;75.50;;;;;;4937427;29;20548;-68
2023/10/10 00:27:14;;;;;;;23.05;13.70;;;19.50;75.50;;;;;;4938052;29;20071;-68
2023/10/10 00:29:42;;;;;;;23.67;14.52;;;19.50;75.50;;;;;;4937786;29;20103;-68
2023/10/10 00:32:25;;;;;;;21.77;14.32;;;19.40;75.60;;;;;;4940986;28;20028;-68
2023/10/10 00:34:55;;;;;;;21.87;14.17;;;19.40;75.50;;;;;;5056695;28;20024;-68
2023/10/10 00:37:25;;;;;;;23.30;14.77;;;19.50;75.50;;;;;;5056555;28;20266;-68
2023/10/10 00:39:54;;;;;;;22.10;13.90;;;19.40;75.50;;;;;;5056734;28;20144;-68
2023/10/10 00:45:16;;;;;;;29.27;15.95;;;19.40;75.60;;;;;;5056742;28;20528;-68
2023/10/10 00:47:47;;;;;;;23.52;14.30;;;19.30;75.60;;;;;;5056713;28;20033;-68
2023/10/10 00:50:24;;;;;;;24.90;14.55;;;19.30;75.70;;;;;;5056229;28;20067;-68
2023/10/10 00:53:00;;;;;;;28.35;15.15;;;19.20;75.80;;;;;;5056629;28;20029;-68
2023/10/10 00:55:33;;;;;;;23.20;14.15;;;19.20;75.70;;;;;;5056275;28;20477;-68
2023/10/10 00:58:03;;;;;;;;;;;19.20;75.70;;;;;;5056888;28;20033;-68
2023/10/10 01:00:30;;;;;;;22.20;12.20;;;19.10;76.20;;;;;;5056542;28;19904;-68
2023/10/10 01:03:20;;;;;;;21.15;14.15;;;19.10;75.60;;;;;;5056204;28;20061;-68
2023/10/10 01:05:55;;;;;;;24.38;13.85;;;19.00;75.50;;;;;;5056393;28;20470;-68
2023/10/10 01:08:30;;;;;;;21.55;13.65;;;19.00;75.80;;;;;;5055921;28;20036;-68
2023/10/10 01:11:02;;;;;;;21.15;13.43;;;18.90;75.80;;;;;;5055963;28;20109;-69
2023/10/10 01:13:31;;;;;;;20.92;13.00;;;19.00;75.90;;;;;;5056789;28;20025;-68
2023/10/10 01:16:01;;;;;;;21.92;12.95;;;18.90;75.80;;;;;;5055984;28;20024;-68
2023/10/10 01:18:51;;;;;;;22.95;13.48;;;18.90;75.60;;;;;;5055789;28;20024;-68
2023/10/10 01:21:29;;;;;;;21.42;13.60;;;18.80;75.80;;;;;;5056147;28;20109;-68
2023/10/10 01:24:06;;;;;;;22.23;12.95;;;18.80;75.80;;;;;;5055774;28;20041;-68
2023/10/10 01:26:44;;;;;;;25.70;14.50;;;18.80;75.90;;;;;;5056039;28;20087;-68
2023/10/10 01:31:54;;;;;;;23.35;14.05;;;18.70;76.00;;;;;;5055707;28;20024;-68
2023/10/10 01:34:52;;;;;;;23.95;13.57;;;18.70;76.00;;;;;;5055017;28;20108;-68
2023/10/10 01:37:22;;;;;;;22.85;12.68;;;18.60;76.20;;;;;;5048603;28;20037;-68
2023/10/10 01:39:54;;;;;;;23.05;13.95;;;18.60;76.10;;;;;;5037921;28;20033;-68
2023/10/10 01:42:44;;;;;;;24.25;13.73;;;18.60;76.10;;;;;;5055787;28;20037;-68
2023/10/10 01:45:18;;;;;;;22.30;13.57;;;18.50;76.30;;;;;;5055435;28;20055;-68
2023/10/10 01:47:56;;;;;;;19.75;12.57;;;18.50;76.40;;;;;;5055442;28;20442;-68
2023/10/10 01:50:34;;;;;;;21.38;13.05;;;18.40;76.60;;;;;;5055608;28;20024;-68
2023/10/10 01:53:06;;;;;;;22.70;13.32;;;18.40;76.50;;;;;;5055961;28;20338;-68
2023/10/10 01:55:32;;;;;;;19.17;12.50;;;18.40;76.50;;;;;;5055266;28;20040;-68
2023/10/10 01:57:57;;;;;;;22.85;12.82;;;18.40;76.50;;;;;;5055240;28;20024;-68
2023/10/10 02:00:34;;;;;;;21.40;12.50;;;18.40;76.70;;;;;;5055282;28;20025;-68
2023/10/10 02:03:03;;;;;;;18.50;11.98;;;18.40;76.60;;;;;;5055205;28;20025;-68
2023/10/10 02:05:45;;;;;;;20.80;12.40;;;18.40;76.60;;;;;;5055128;28;20464;-68
2023/10/10 02:08:17;;;;;;;19.23;12.10;;;18.40;76.70;;;;;;5055074;28;20065;-68
2023/10/10 02:13:22;;;;;;;18.42;10.90;;;18.40;76.60;;;;;;5055456;28;20036;-68
2023/10/10 02:15:51;;;;;;;17.75;11.63;;;18.40;76.70;;;;;;5055359;28;20075;-68
2023/10/10 02:18:39;;;;;;;21.58;12.20;;;18.40;76.60;;;;;;5054915;28;20036;-68
2023/10/10 02:21:09;;;;;;;19.80;11.80;;;18.40;76.60;;;;;;5055366;28;20036;-68
2023/10/10 02:23:35;;;;;;;18.65;11.45;;;18.40;76.70;;;;;;5055299;28;20024;-68
2023/10/10 02:26:35;;;;;;;18.58;11.07;;;18.40;76.70;;;;;;5054941;28;20028;-68
2023/10/10 02:29:16;;;;;;;22.85;11.45;;;18.40;76.60;;;;;;5054114;28;20080;-68
2023/10/10 02:31:40;;;;;;;23.77;12.30;;;18.30;76.70;;;;;;5054753;28;20029;-68
2023/10/10 02:34:10;;;;;;;18.65;11.07;;;18.30;76.70;;;;;;5054902;28;20354;-68
2023/10/10 02:36:41;;;;;;;21.23;11.15;;;18.30;76.70;;;;;;5054881;28;20025;-68
2023/10/10 02:41:49;;;;;;;19.90;11.32;;;18.20;76.70;;;;;;5054835;28;20327;-68
2023/10/10 02:47:02;;;;;;;21.40;12.10;;;18.20;76.80;;;;;;5057067;28;20037;-68
2023/10/10 02:51:57;;;;;;;20.13;11.15;;;18.10;76.90;;;;;;5058742;28;20025;-68
2023/10/10 02:54:34;;;;;;;18.10;11.50;;;18.10;76.80;;;;;;5058923;28;20021;-68
2023/10/10 02:59:59;;;;;;;16.50;10.27;;;18.00;76.80;;;;;;5059068;28;20047;-68
2023/10/10 03:02:40;;;;;;;18.80;10.32;;;18.00;76.80;;;;;;5040913;28;20369;-68
2023/10/10 03:05:15;;;;;;;17.67;10.63;;;18.00;76.70;;;;;;5058752;28;20043;-68
2023/10/10 03:07:42;;;;;;;20.45;11.43;;;18.00;76.70;;;;;;5058374;28;20446;-68
2023/10/10 03:10:22;;;;;;;18.67;11.30;;;18.00;76.60;;;;;;5058456;28;20110;-68
2023/10/10 03:13:05;;;;;;;20.15;11.45;;;17.90;76.70;;;;;;5058875;28;20025;-68
2023/10/10 03:15:33;;;;;;;17.10;9.60;;;17.90;76.70;;;;;;5058237;28;20025;-68
2023/10/10 03:21:12;;;;;;;17.45;11.05;;;17.90;76.80;;;;;;5058211;28;20044;-68
2023/10/10 03:23:56;;;;;;;16.67;10.13;;;17.80;76.80;;;;;;5055610;28;20052;-68
2023/10/10 03:29:20;;;;;;;19.80;9.68;;;17.70;76.60;;;;;;5058069;28;20129;-68
2023/10/10 03:32:18;;;;;;;17.05;10.20;;;17.70;76.60;;;;;;5057883;28;20391;-68
2023/10/10 03:34:55;;;;;;;19.08;10.88;;;17.70;76.70;;;;;;5057756;28;20040;-68
2023/10/10 03:37:40;;;;;;;17.27;9.90;;;17.70;76.70;;;;;;5057811;28;20512;-68
2023/10/10 05:25:37;;;;;;;17.48;8.38;;;17.20;77.30;;;;;;5055844;28;20039;-66
2023/10/10 05:28:03;;;;;;;17.90;8.20;;;17.20;77.40;;;;;;5038111;28;20398;-66
2023/10/10 05:31:02;;;;;;;19.70;7.55;;;17.30;77.40;;;;;;5055656;28;20104;-66
2023/10/10 05:33:22;;;;;;;16.10;8.55;;;17.30;77.50;;;;;;5052540;28;20025;-66
2023/10/10 05:35:57;;;;;;;14.85;8.15;;;17.30;77.50;;;;;;5038042;28;20545;-66
2023/10/10 05:38:25;;;;;;;17.10;8.18;;;17.40;77.50;;;;;;5055444;28;20052;-66
2023/10/10 05:40:51;;;;;;;18.92;8.05;;;17.40;77.40;;;;;;5055374;28;20044;-66
2023/10/10 05:43:26;;;;;;;15.15;8.07;;;17.40;77.40;;;;;;5055710;28;20045;-67
2023/10/10 05:46:11;;;;;;;16.58;8.60;;;17.50;77.30;;;;;;5055510;28;20036;-64
2023/10/10 05:48:37;;;;;;;16.27;8.48;;;17.50;77.40;;;;;;5055349;28;20405;-67
2023/10/10 05:51:03;;;;;;;21.17;10.27;;;17.50;77.30;;;;;;5055464;28;20013;-67
2023/10/10 05:53:33;;;;;;;21.73;9.85;;;17.60;77.10;;;;;;5055477;28;20071;-67
2023/10/10 05:56:12;;;;;;;16.88;8.63;;;17.50;77.20;;;;;;5055358;28;20033;-67
2023/10/10 05:58:47;;;;;;;19.20;8.60;;;17.50;77.00;;;;;;5055594;28;20053;-66
2023/10/10 06:01:14;;;;;;;14.18;7.75;;;17.60;77.20;;;;;;5055647;28;20087;-66
2023/10/10 06:03:46;;;;;;;27.48;8.95;;;17.50;77.20;;;;;;5055241;28;20021;-66
2023/10/10 06:06:13;;;;;;;36.85;10.60;;;17.50;77.40;;;;;;5055282;28;20025;-66
2023/10/10 06:08:44;;;;;;;42.92;12.13;;;17.60;77.10;;;;;;5055130;28;20124;-66
2023/10/10 06:11:14;;;;;;;26.50;9.60;;;17.60;77.50;;;;;;5037710;28;20017;-66
2023/10/10 06:13:43;;;;;;;18.35;9.10;;;17.60;77.60;;;;;;5055497;28;20043;-66
2023/10/10 06:16:12;;;;;;;18.23;8.82;;;17.60;77.50;;;;;;5055742;28;20024;-66
2023/10/10 06:18:50;;;;;;;20.05;8.43;;;17.60;77.70;;;;;;5055036;28;20386;-66
2023/10/10 06:21:18;;;;;;;24.50;10.07;;;17.60;77.50;;;;;;5056181;28;20029;-66
2023/10/10 06:23:44;;;;;;;28.67;10.40;;;17.90;81.10;;;;;;5059245;28;20450;-67
2023/10/10 06:26:12;;;;;;;16.77;8.27;;;18.10;79.60;;;;;;5059256;28;20021;-67
2023/10/10 06:28:45;;;;;;;22.38;8.48;;;18.30;78.30;;;;;;5059031;28;20500;-66
2023/10/10 06:31:17;;;;;;;13.53;7.40;;;18.40;77.60;;;;;;5059224;28;20032;-67
2023/10/10 06:33:43;;;;;;;15.38;8.00;;;18.40;77.20;;;;;;5059458;28;20056;-67
2023/10/10 06:41:43;;;;;;;19.15;8.15;;;18.40;77.00;;;;;;5059065;28;20036;-67
2023/10/10 06:44:15;;;;;;;16.85;8.68;;;18.40;77.10;;;;;;5058840;28;20076;-68
2023/10/10 06:46:41;;;;;;;14.95;7.53;;;18.40;77.10;;;;;;5059219;28;20103;-68
2023/10/10 06:49:11;;;;;;;19.25;7.72;;;18.40;77.00;;;;;;5058971;28;20059;-66
2023/10/10 06:51:41;;;;;;;30.17;9.02;;;18.40;76.90;;;;;;5059117;28;20024;-67
2023/10/10 06:54:19;;;;;;;29.75;8.68;;;18.50;76.80;;;;;;5059048;28;20112;-67
2023/10/10 06:57:21;;;;;;;21.23;6.93;;;18.60;76.80;;;;;;5059050;28;20037;-67
2023/10/10 06:59:41;;;;;;;16.58;7.18;;;18.70;76.40;;;;;;5055580;28;20115;-67
2023/10/10 07:02:13;;;;;;;15.32;7.35;;;18.90;76.00;;;;;;5058661;28;20040;-67
2023/10/10 07:04:40;;;;;;;20.00;7.75;;;19.00;75.20;;;;;;5059093;28;20037;-67
2023/10/10 07:07:08;;;;;;;25.52;11.10;;;19.30;75.00;;;;;;5040937;28;20021;-66
2023/10/10 07:09:37;;;;;;;18.85;8.90;;;19.50;74.40;;;;;;5058890;28;20052;-66
2023/10/10 07:12:10;;;;;;;22.13;11.15;;;19.80;74.10;;;;;;5058365;28;20017;-66
2023/10/10 07:14:47;;;;;;;20.70;9.02;;;20.00;73.50;;;;;;5058943;28;20021;-66
2023/10/10 07:17:14;;;;;;;24.08;9.50;;;20.20;73.20;;;;;;5058905;28;20104;-66
2023/10/10 07:22:33;;;;;;;21.00;8.52;;;20.50;71.60;;;;;;5058283;28;20443;-67
2023/10/10 07:25:07;;;;;;;18.10;8.55;;;20.70;71.20;;;;;;5058487;28;20033;-66
2023/10/10 07:27:39;;;;;;;20.48;8.88;;;20.90;71.00;;;;;;5058701;28;20028;-66
2023/10/10 07:30:16;;;;;;;20.17;8.00;;;21.00;70.30;;;;;;5058126;28;20079;-66
2023/10/10 07:32:50;;;;;;;19.90;8.07;;;21.20;70.20;;;;;;5057882;28;20108;-66
2023/10/10 07:35:25;;;;;;;16.98;7.82;;;21.40;70.20;;;;;;5041020;28;20108;-66
2023/10/10 07:37:58;;;;;;;16.98;7.25;;;21.50;69.80;;;;;;5058234;28;20044;-67
2023/10/10 07:40:31;;;;;;;17.42;6.72;;;21.60;69.70;;;;;;5057832;28;20029;-66
2023/10/10 07:43:01;;;;;;;26.30;7.82;;;21.80;69.50;;;;;;5057521;28;20037;-66
2023/10/10 07:45:33;;;;;;;15.85;7.47;;;21.90;69.20;;;;;;5057731;28;20028;-67
2023/10/10 07:50:35;;;;;;;20.77;9.15;;;22.20;68.50;;;;;;5057546;28;20033;-66
2023/10/10 07:53:12;;;;;;;26.35;14.38;;;22.40;68.30;;;;;;5057537;28;20492;-66
2023/10/10 07:58:43;;;;;;;28.65;13.00;;;22.60;67.10;;;;;;5057452;28;20024;-67
2023/10/10 08:01:16;;;;;;;27.23;14.85;;;22.60;67.10;;;;;;5057356;28;20104;-66
2023/10/10 08:03:44;;;;;;;32.90;16.67;;;22.90;67.00;;;;;;5057324;28;20067;-67
2023/10/10 08:06:21;;;;;;;29.25;15.70;;;22.90;67.20;;;;;;5057321;28;20013;-66
2023/10/10 08:08:56;;;;;;;31.05;18.15;;;23.00;67.40;;;;;;5039608;28;20108;-67
2023/10/10 08:11:35;;;;;;;36.63;19.17;;;23.10;67.60;;;;;;5057415;28;20071;-66
2023/10/10 08:14:08;;;;;;;43.05;22.63;;;23.30;68.10;;;;;;5057436;28;20052;-66
2023/10/10 08:16:39;;;;;;;43.40;24.80;;;23.40;68.30;;;;;;5056979;28;20021;-67
2023/10/10 08:19:15;;;;;;;45.20;22.83;;;23.40;68.70;;;;;;5039357;28;20367;-67
2023/10/10 08:21:50;;;;;;;35.63;20.65;;;23.40;68.20;;;;;;5056937;28;20029;-67
2023/10/10 08:24:16;;;;;;;45.42;22.40;;;23.50;68.20;;;;;;5057520;28;20457;-67
2023/10/10 08:26:44;;;;;;;35.85;20.52;;;23.60;68.00;;;;;;5057165;28;20075;-67
2023/10/10 08:29:13;;;;;;;37.42;19.50;;;23.60;67.80;;;;;;5056753;28;20037;-67
2023/10/10 08:31:43;;;;;;;36.10;20.63;;;23.70;67.90;;;;;;5057319;28;20045;-67
2023/10/10 08:34:09;;;;;;;39.28;22.38;;;23.70;67.80;;;;;;5057266;28;20029;-67
2023/10/10 08:36:37;;;;;;;40.80;23.58;;;23.80;67.80;;;;;;5056651;28;20480;-67
2023/10/10 08:41:42;;;;;;;44.28;25.33;;;23.80;67.20;;;;;;5056650;28;20021;-67
2023/10/10 08:44:14;;;;;;;43.03;23.60;;;23.90;68.00;;;;;;5035001;28;20076;-67
2023/10/10 08:46:46;;;;;;;36.33;22.00;;;23.80;67.90;;;;;;5036865;28;20037;-67
2023/10/10 08:49:13;;;;;;;39.72;22.85;;;23.90;68.10;;;;;;5036285;28;20037;-67
2023/10/10 08:51:41;;;;;;;44.60;25.02;;;23.90;68.30;;;;;;5036514;28;20378;-68
2023/10/10 08:54:12;;;;;;;49.22;28.83;;;23.90;68.60;;;;;;5036355;28;20435;-69
2023/10/10 08:56:41;;;;;;;42.40;25.08;;;23.90;69.10;;;;;;5036150;28;20030;-69
2023/10/10 08:59:11;;;;;;;37.80;24.05;;;23.90;68.80;;;;;;5036506;28;20048;-68
2023/10/10 09:01:37;;;;;;;45.85;27.85;;;23.90;69.00;;;;;;5036291;28;20104;-68
2023/10/10 09:04:04;;;;;;;46.92;25.38;;;23.90;69.00;;;;;;5036214;28;20087;-68
2023/10/10 09:06:44;;;;;;;40.75;24.98;;;23.90;68.90;;;;;;5036505;28;20025;-68
2023/10/10 09:11:57;;;;;;;42.58;24.25;;;23.80;69.00;;;;;;5036606;28;20080;-68
2023/10/10 09:14:36;;;;;;;46.33;25.67;;;23.90;69.10;;;;;;5035821;28;20113;-68
2023/10/10 09:17:06;;;;;;;51.50;30.27;;;23.80;68.90;;;;;;5036552;28;20071;-68
2023/10/10 09:19:49;;;;;;;53.47;31.02;;;23.80;69.70;;;;;;5035883;28;20048;-68
2023/10/10 09:22:42;;;;;;;47.00;27.57;;;23.90;69.80;;;;;;5036529;28;20026;-68
2023/10/10 09:25:48;;;;;;;58.28;34.38;;;23.90;69.80;;;;;;5036177;28;20037;-68
2023/10/10 09:28:16;;;;;;;59.65;33.17;;;23.70;70.10;;;;;;5036015;28;20108;-68
2023/10/10 09:30:50;;;;;;;52.33;29.20;;;23.70;70.40;;;;;;5035626;28;20061;-68
2023/10/10 09:33:29;;;;;;;52.28;30.77;;;23.60;70.40;;;;;;5036302;28;20036;-68
2023/10/10 09:36:15;;;;;;;47.53;29.58;;;23.60;70.40;;;;;;5035959;28;20029;-68
2023/10/10 09:38:46;;;;;;;57.88;32.15;;;23.60;70.50;;;;;;5035487;28;20041;-68
2023/10/10 09:44:30;;;;;;;47.55;29.13;;;23.60;70.60;;;;;;5045236;28;20071;-68
2023/10/10 09:50:29;;;;;;;41.33;25.67;;;23.90;70.20;;;;;;5055845;28;20036;-68
2023/10/10 09:52:59;;;;;;;49.15;29.45;;;23.90;69.50;;;;;;5053770;28;20029;-68
2023/10/10 09:58:24;;;;;;;43.40;26.45;;;24.20;69.50;;;;;;5055127;28;20513;-68
2023/10/10 10:00:53;;;;;;;43.60;25.00;;;24.20;69.00;;;;;;5054923;28;20125;-68
2023/10/10 10:06:01;;;;;;;45.65;27.27;;;24.40;67.80;;;;;;5055933;28;20331;-68
2023/10/10 10:08:56;;;;;;;46.20;27.95;;;24.50;67.30;;;;;;5037683;28;20059;-68
2023/10/10 10:11:35;;;;;;;45.67;26.77;;;24.50;66.80;;;;;;5055237;28;20037;-68
2023/10/10 10:14:17;;;;;;;45.67;26.13;;;24.60;67.00;;;;;;5055495;28;20055;-68
2023/10/10 10:16:52;;;;;;;39.42;24.38;;;24.70;66.20;;;;;;5055479;28;20032;-68
2023/10/10 10:19:27;;;;;;;42.30;26.27;;;24.60;66.70;;;;;;5055793;28;20028;-68
2023/10/10 10:22:08;;;;;;;35.05;20.60;;;24.70;66.50;;;;;;5055663;28;20029;-68
2023/10/10 10:24:46;;;;;;;38.67;25.38;;;24.70;66.10;;;;;;5055196;28;20032;-68
2023/10/10 10:29:56;;;;;;;37.75;22.73;;;24.90;65.60;;;;;;5055025;28;20060;-68
2023/10/10 10:32:24;;;;;;;41.97;22.85;;;24.90;65.70;;;;;;5038059;28;20029;-68
2023/10/10 10:34:57;;;;;;;35.38;21.20;;;24.90;65.50;;;;;;5055279;28;20025;-68
2023/10/10 10:37:28;;;;;;;37.85;21.35;;;24.90;65.70;;;;;;5054979;28;20084;-68
2023/10/10 10:42:41;;;;;;;32.58;20.55;;;25.00;65.90;;;;;;5055062;28;20043;-69
2023/10/10 10:45:26;;;;;;;35.03;21.17;;;25.00;65.70;;;;;;5054853;28;20200;-69
2023/10/10 10:48:01;;;;;;;40.22;24.83;;;25.10;65.80;;;;;;5055213;28;20067;-68
2023/10/10 10:51:02;;;;;;;40.92;25.15;;;25.20;65.20;;;;;;5055466;28;20473;-69
2023/10/10 10:53:38;;;;;;;41.40;25.55;;;25.20;64.60;;;;;;5054831;28;20044;-68
2023/10/10 10:56:37;;;;;;;41.20;25.98;;;24.90;65.00;;;;;;5054762;28;20074;-68
2023/10/10 10:59:20;;;;;;;33.20;22.17;;;24.80;65.40;;;;;;5054321;28;20443;-68
2023/10/10 11:01:57;;;;;;;35.40;22.67;;;24.70;65.90;;;;;;5040046;28;20100;-69
2023/10/10 11:07:03;;;;;;;37.30;23.50;;;24.80;66.30;;;;;;5038803;28;20164;-68
2023/10/10 11:09:32;;;;;;;37.05;22.55;;;24.90;65.60;;;;;;5058649;28;20041;-68
2023/10/10 11:12:03;;;;;;;42.95;25.80;;;24.90;65.80;;;;;;5058474;28;20324;-68
2023/10/10 11:14:33;;;;;;;31.40;21.13;;;24.90;65.50;;;;;;5008424;28;20144;-69
2023/10/10 11:17:02;;;;;;;42.83;26.02;;;25.00;65.60;;;;;;5058590;28;20042;-68
2023/10/10 11:22:01;;;;;;;39.83;25.08;;;25.00;65.20;;;;;;5058321;28;20033;-69
2023/10/10 11:24:34;;;;;;;35.72;22.48;;;25.10;64.90;;;;;;5040780;28;20029;-69
2023/10/10 11:30:00;;;;;;;40.20;23.98;;;25.00;65.10;;;;;;5057988;28;20040;-69
2023/10/10 11:32:36;;;;;;;41.17;24.35;;;25.00;64.30;;;;;;5057781;28;20025;-68
2023/10/10 11:37:44;;;;;;;36.80;23.67;;;25.10;64.70;;;;;;5058819;28;20450;-68
2023/10/10 11:42:56;;;;;;;;;;;25.00;64.80;;;;;;5058141;28;20040;-69
2023/10/10 11:45:27;;;;;;;44.92;26.27;;;25.00;64.50;;;;;;5058144;28;19944;-69
2023/10/10 11:48:00;;;;;;;42.08;24.40;;;25.00;65.00;;;;;;5058257;28;20043;-69
2023/10/10 11:50:43;;;;;;;;;;;25.10;64.90;;;;;;5041904;28;20021;-69
2023/10/10 11:53:13;;;;;;;35.70;23.20;;;25.10;64.70;;;;;;5040116;28;20341;-69
2023/10/10 11:55:42;;;;;;;33.67;22.35;;;25.10;65.10;;;;;;5024067;28;20017;-69
2023/10/10 11:58:08;;;;;;;37.20;23.85;;;25.20;65.10;;;;;;5057464;28;20025;-69
2023/10/10 12:00:43;;;;;;;35.22;21.45;;;25.30;64.80;;;;;;5057842;28;20051;-69
2023/10/10 12:03:16;;;;;;;37.03;22.08;;;25.40;64.60;;;;;;5039950;28;20035;-69
2023/10/10 12:05:48;;;;;;;34.40;21.92;;;25.50;64.40;;;;;;5040286;28;20082;-69
2023/10/10 12:08:16;;;;;;;35.60;21.88;;;25.50;64.10;;;;;;5040618;28;20328;-69
2023/10/10 12:10:52;;;;;;;38.15;21.60;;;25.60;64.00;;;;;;5039858;28;20074;-69
2023/10/10 12:16:07;;;;;;;41.70;25.88;;;25.60;63.90;;;;;;5057898;28;20086;-68
2023/10/10 12:18:44;;;;;;;40.67;26.27;;;25.60;64.00;;;;;;5056321;28;20021;-69
2023/10/10 12:21:31;;;;;;;41.63;24.40;;;25.70;63.60;;;;;;5055849;28;20029;-68
2023/10/10 12:24:00;;;;;;;38.42;22.20;;;25.70;63.20;;;;;;5057117;28;20017;-69
2023/10/10 12:26:26;;;;;;;35.33;21.65;;;25.80;63.40;;;;;;5056997;28;20036;-68
2023/10/10 12:28:55;;;;;;;45.20;27.73;;;25.80;63.40;;;;;;5056889;28;20024;-68
2023/10/10 12:31:22;;;;;;;43.97;25.27;;;25.90;62.40;;;;;;5056959;28;20079;-69
2023/10/10 12:33:49;;;;;;;37.50;24.80;;;25.80;62.70;;;;;;5056923;28;20040;-69
2023/10/10 12:36:22;;;;;;;33.83;22.10;;;25.60;62.80;;;;;;5057144;28;20438;-68
2023/10/10 12:38:49;;;;;;;40.65;24.25;;;25.50;63.40;;;;;;5057065;28;20033;-69
2023/10/10 12:41:20;;;;;;;30.55;20.83;;;25.50;63.30;;;;;;5039198;28;20486;-68
2023/10/10 12:44:14;;;;;;;42.55;24.25;;;25.60;63.40;;;;;;5056751;28;20059;-68
2023/10/10 12:46:40;;;;;;;36.13;22.45;;;25.60;61.80;;;;;;5057271;28;20084;-69
2023/10/10 12:49:11;;;;;;;41.88;23.90;;;25.70;61.40;;;;;;5056490;28;20504;-69
2023/10/10 12:51:39;;;;;;;35.42;21.70;;;25.70;60.90;;;;;;5056441;28;20090;-69
2023/10/10 12:54:05;;;;;;;40.42;24.35;;;25.80;61.40;;;;;;5056506;28;20014;-69
2023/10/10 12:56:39;;;;;;;30.63;17.80;;;25.90;60.60;;;;;;5056745;28;20427;-69
2023/10/10 12:59:07;;;;;;;33.53;19.17;;;25.90;61.20;;;;;;5038846;28;20025;-69
2023/10/10 13:01:37;;;;;;;35.22;21.33;;;26.00;60.80;;;;;;5056356;28;20328;-69
2023/10/10 13:04:07;;;;;;;33.83;18.45;;;26.10;60.80;;;;;;5056431;28;20092;-69
2023/10/10 13:06:36;;;;;;;28.73;17.30;;;26.00;60.80;;;;;;5056952;28;20039;-69
2023/10/10 13:09:08;;;;;;;35.55;21.48;;;26.00;61.20;;;;;;5056037;28;20442;-69
2023/10/10 13:11:43;;;;;;;31.15;18.77;;;26.10;61.10;;;;;;5056134;28;20029;-68
2023/10/10 13:14:17;;;;;;;37.78;23.52;;;26.10;60.80;;;;;;5056128;28;20032;-69
2023/10/10 13:19:09;;;;;;;37.53;23.30;;;26.20;60.60;;;;;;5056271;28;20033;-68
2023/10/10 13:21:42;;;;;;;39.38;25.15;;;26.20;60.70;;;;;;5056032;28;20038;-68
2023/10/10 13:24:15;;;;;;;37.33;24.02;;;26.20;59.80;;;;;;5055957;28;20021;-68
2023/10/10 13:26:45;;;;;;;37.92;23.70;;;26.20;59.90;;;;;;5056625;28;20032;-68
2023/10/10 13:29:15;;;;;;;36.45;23.33;;;26.30;59.70;;;;;;5055716;28;20064;-68
2023/10/10 13:31:50;;;;;;;36.78;24.05;;;26.20;59.90;;;;;;5055553;28;20021;-68
2023/10/10 13:34:22;;;;;;;36.25;23.67;;;26.20;60.10;;;;;;5056311;28;20020;-68
2023/10/10 13:36:49;;;;;;;31.38;20.42;;;26.20;60.50;;;;;;5055725;28;20040;-68
2023/10/10 13:39:17;;;;;;;44.08;28.23;;;26.30;60.50;;;;;;5038410;28;20056;-68
2023/10/10 13:41:44;;;;;;;38.92;25.20;;;26.20;60.70;;;;;;5055888;28;20024;-68
2023/10/10 13:44:10;;;;;;;31.98;20.95;;;26.20;60.80;;;;;;5055061;28;20049;-68
2023/10/10 13:46:36;;;;;;;42.35;24.38;;;26.10;61.00;;;;;;5055458;28;20029;-68
2023/10/10 13:49:08;;;;;;;37.70;23.73;;;26.00;61.00;;;;;;5055681;28;20083;-68
2023/10/10 13:51:41;;;;;;;39.13;23.83;;;25.90;61.40;;;;;;5055348;28;20039;-68
2023/10/10 13:54:07;;;;;;;41.92;24.52;;;25.80;61.70;;;;;;5055709;28;20027;-68
2023/10/10 13:56:33;;;;;;;39.13;23.67;;;25.70;61.60;;;;;;5055389;28;20025;-68
2023/10/10 13:59:02;;;;;;;41.13;23.80;;;25.70;61.60;;;;;;5037882;28;20029;-68
2023/10/10 14:01:36;;;;;;;36.20;22.58;;;25.70;61.70;;;;;;5055298;28;20438;-68
2023/10/10 14:04:23;;;;;;;40.60;24.23;;;25.80;61.70;;;;;;5055291;28;20438;-68
2023/10/10 14:06:48;;;;;;;37.28;21.02;;;25.80;61.70;;;;;;5055077;28;20083;-69
2023/10/10 14:09:36;;;;;;;36.72;22.23;;;25.80;61.80;;;;;;5053394;28;20029;-69
2023/10/10 14:12:01;;;;;;;39.28;23.65;;;25.70;62.00;;;;;;5052425;28;20047;-68
2023/10/10 14:14:30;;;;;;;30.60;19.88;;;25.70;61.80;;;;;;5053153;28;20100;-69
2023/10/10 14:16:56;;;;;;;36.80;21.25;;;25.70;61.60;;;;;;5055135;28;20108;-68
2023/10/10 14:19:24;;;;;;;38.03;23.00;;;25.70;61.70;;;;;;5055250;28;20025;-68
2023/10/10 14:21:53;;;;;;;35.22;22.27;;;25.70;61.70;;;;;;5055886;28;20047;-68
2023/10/10 14:24:19;;;;;;;38.10;24.23;;;25.50;61.90;;;;;;5055238;28;20036;-68
2023/10/10 14:26:48;;;;;;;36.53;20.85;;;25.40;62.60;;;;;;5054848;28;20029;-68
2023/10/10 14:29:18;;;;;;;38.25;22.65;;;25.50;62.50;;;;;;5055199;28;20106;-68
2023/10/10 14:31:45;;;;;;;40.33;23.88;;;25.50;62.40;;;;;;5054956;28;20072;-68
2023/10/10 14:34:19;;;;;;;37.70;23.13;;;25.50;62.30;;;;;;5053582;28;20540;-68
2023/10/10 14:36:46;;;;;;;37.78;22.80;;;25.50;62.10;;;;;;5055335;28;20043;-68
2023/10/10 14:39:28;;;;;;;31.52;20.38;;;25.50;62.20;;;;;;5054863;28;20036;-68
2023/10/10 14:41:58;;;;;;;36.63;21.73;;;25.50;62.00;;;;;;5055888;28;20466;-68
2023/10/10 14:44:26;;;;;;;35.58;21.08;;;25.50;62.10;;;;;;5041432;28;20045;-69
2023/10/10 14:46:54;;;;;;;37.80;22.48;;;25.50;62.10;;;;;;5059122;28;20037;-68
2023/10/10 14:49:29;;;;;;;36.70;22.98;;;25.40;62.20;;;;;;5058896;28;20163;-68
2023/10/10 14:52:06;;;;;;;39.45;21.83;;;25.30;62.60;;;;;;5059050;28;20025;-68
2023/10/10 14:54:42;;;;;;;34.33;21.85;;;25.10;63.10;;;;;;5042732;28;20025;-68
2023/10/10 14:57:15;;;;;;;37.65;22.73;;;25.20;63.40;;;;;;5058660;28;20029;-68
2023/10/10 14:59:45;;;;;;;36.92;22.17;;;25.20;63.20;;;;;;5058775;28;20029;-68
2023/10/10 15:02:15;;;;;;;35.60;21.52;;;25.20;63.10;;;;;;5059120;28;20104;-68
2023/10/10 15:04:41;;;;;;;31.00;19.27;;;25.10;63.30;;;;;;5058741;28;20025;-68
2023/10/10 15:07:12;;;;;;;31.60;21.30;;;25.00;63.40;;;;;;5058517;28;20090;-68
2023/10/10 15:09:40;;;;;;;34.28;21.23;;;25.00;63.50;;;;;;5058248;28;20035;-68
2023/10/10 15:12:08;;;;;;;37.55;22.55;;;24.90;63.80;;;;;;5058959;28;20067;-68
2023/10/10 15:14:34;;;;;;;33.70;21.05;;;24.90;64.20;;;;;;5058575;28;20048;-68
2023/10/10 15:17:04;;;;;;;36.78;21.98;;;24.80;64.20;;;;;;5058771;28;20060;-68
2023/10/10 15:19:30;;;;;;;39.17;21.80;;;24.90;64.20;;;;;;5058288;28;20087;-68
2023/10/10 15:21:58;;;;;;;35.78;21.27;;;24.80;64.40;;;;;;5040668;28;20037;-68
2023/10/10 15:24:24;;;;;;;35.92;21.58;;;24.70;64.60;;;;;;5058426;28;20053;-68
2023/10/10 15:26:51;;;;;;;38.15;21.90;;;24.70;64.80;;;;;;5058105;28;20090;-68
2023/10/10 15:29:20;;;;;;;39.53;22.00;;;24.70;65.00;;;;;;5058195;28;20036;-68
2023/10/10 15:31:54;;;;;;;33.80;21.13;;;24.60;65.20;;;;;;5040265;28;20032;-68
2023/10/10 15:34:21;;;;;;;34.00;20.95;;;24.60;65.40;;;;;;5057865;28;20116;-68
2023/10/10 15:36:47;;;;;;;39.45;23.15;;;24.60;65.70;;;;;;5057894;28;20028;-68
2023/10/10 15:39:13;;;;;;;37.00;22.23;;;24.70;65.50;;;;;;5058300;28;20035;-68
2023/10/10 15:41:42;;;;;;;33.42;21.42;;;24.70;65.60;;;;;;5057880;28;20079;-68
2023/10/10 15:44:12;;;;;;;39.00;23.20;;;24.70;65.80;;;;;;5057485;28;20045;-68
2023/10/10 15:46:38;;;;;;;43.72;24.77;;;24.70;65.80;;;;;;5057730;28;20029;-68
2023/10/10 15:49:11;;;;;;;40.80;23.83;;;24.70;65.80;;;;;;5057142;28;20025;-68
2023/10/10 15:51:40;;;;;;;39.80;24.98;;;24.80;65.70;;;;;;5057600;28;20020;-68
2023/10/10 15:54:14;;;;;;;32.80;21.83;;;24.90;65.90;;;;;;5056472;28;20029;-68
2023/10/10 15:56:41;;;;;;;36.88;22.35;;;24.90;65.60;;;;;;5057548;28;20021;-68
2023/10/10 15:59:07;;;;;;;36.10;22.45;;;24.90;65.60;;;;;;5057400;28;20029;-68
2023/10/10 16:01:34;;;;;;;39.47;24.40;;;24.90;65.70;;;;;;5057987;28;20029;-68
2023/10/10 16:04:12;;;;;;;36.63;23.10;;;24.90;65.80;;;;;;5057657;28;20036;-69